sensor_id;sensor_type;location;lat;lon;timestamp;P1;durP1;ratioP1;P2;durP2;ratioP2
75820;SDS011;64454;51.984;9.838;2023-06-22T00:01:17;7.72;;;6.70;;
75820;SDS011;64454;51.984;9.838;2023-06-22T00:03:45;7.00;;;6.10;;
75820;SDS011;64454;51.984;9.838;2023-06-22T00:06:14;9.68;;;7.75;;
75820;SDS011;64454;51.984;9.838;2023-06-22T00:08:41;8.07;;;6.93;;
75820;SDS011;64454;51.984;9.838;2023-06-22T00:11:08;9.30;;;7.15;;
75820;SDS011;64454;51.984;9.838;2023-06-22T00:13:34;7.93;;;6.70;;
75820;SDS011;64454;51.984;9.838;2023-06-22T00:16:01;7.10;;;6.38;;
75820;SDS011;64454;51.984;9.838;2023-06-22T00:18:29;8.25;;;7.00;;
75820;SDS011;64454;51.984;9.838;2023-06-22T00:20:58;7.85;;;6.75;;
75820;SDS011;64454;51.984;9.838;2023-06-22T00:23:26;8.50;;;7.22;;
75820;SDS011;64454;51.984;9.838;2023-06-22T00:25:52;8.57;;;7.38;;
75820;SDS011;64454;51.984;9.838;2023-06-22T00:28:19;9.00;;;7.40;;
75820;SDS011;64454;51.984;9.838;2023-06-22T00:30:48;7.13;;;6.43;;
75820;SDS011;64454;51.984;9.838;2023-06-22T00:33:15;8.80;;;6.95;;
75820;SDS011;64454;51.984;9.838;2023-06-22T00:35:42;9.30;;;7.25;;
75820;SDS011;64454;51.984;9.838;2023-06-22T00:38:10;8.43;;;7.23;;
75820;SDS011;64454;51.984;9.838;2023-06-22T00:40:37;7.75;;;6.95;;
75820;SDS011;64454;51.984;9.838;2023-06-22T00:43:05;7.78;;;6.97;;
75820;SDS011;64454;51.984;9.838;2023-06-22T00:45:32;8.70;;;7.63;;
75820;SDS011;64454;51.984;9.838;2023-06-22T00:47:59;8.05;;;6.72;;
75820;SDS011;64454;51.984;9.838;2023-06-22T00:50:27;12.57;;;7.25;;
75820;SDS011;64454;51.984;9.838;2023-06-22T00:52:58;8.13;;;7.10;;
75820;SDS011;64454;51.984;9.838;2023-06-22T00:55:30;8.20;;;7.25;;
75820;SDS011;64454;51.984;9.838;2023-06-22T00:57:58;10.23;;;7.65;;
75820;SDS011;64454;51.984;9.838;2023-06-22T01:00:25;7.43;;;6.72;;
75820;SDS011;64454;51.984;9.838;2023-06-22T01:02:52;8.15;;;7.00;;
75820;SDS011;64454;51.984;9.838;2023-06-22T01:05:19;8.40;;;7.40;;
75820;SDS011;64454;51.984;9.838;2023-06-22T01:08:00;7.97;;;6.68;;
75820;SDS011;64454;51.984;9.838;2023-06-22T01:10:43;9.52;;;7.85;;
75820;SDS011;64454;51.984;9.838;2023-06-22T01:13:16;7.40;;;6.68;;
75820;SDS011;64454;51.984;9.838;2023-06-22T01:16:00;8.35;;;7.45;;
75820;SDS011;64454;51.984;9.838;2023-06-22T01:18:31;10.18;;;6.90;;
75820;SDS011;64454;51.984;9.838;2023-06-22T01:21:02;9.65;;;7.75;;
75820;SDS011;64454;51.984;9.838;2023-06-22T01:23:37;8.90;;;7.10;;
75820;SDS011;64454;51.984;9.838;2023-06-22T01:26:22;9.38;;;7.38;;
75820;SDS011;64454;51.984;9.838;2023-06-22T01:29:03;8.35;;;7.45;;
75820;SDS011;64454;51.984;9.838;2023-06-22T01:31:33;10.20;;;6.70;;
75820;SDS011;64454;51.984;9.838;2023-06-22T01:34:02;10.82;;;6.82;;
75820;SDS011;64454;51.984;9.838;2023-06-22T01:36:32;9.27;;;7.03;;
75820;SDS011;64454;51.984;9.838;2023-06-22T01:39:02;9.00;;;7.13;;
75820;SDS011;64454;51.984;9.838;2023-06-22T01:41:33;8.45;;;6.80;;
75820;SDS011;64454;51.984;9.838;2023-06-22T01:44:04;8.77;;;6.97;;
75820;SDS011;64454;51.984;9.838;2023-06-22T01:46:33;8.60;;;7.20;;
75820;SDS011;64454;51.984;9.838;2023-06-22T01:49:02;9.63;;;7.35;;
75820;SDS011;64454;51.984;9.838;2023-06-22T01:51:30;13.60;;;7.47;;
75820;SDS011;64454;51.984;9.838;2023-06-22T01:53:57;10.80;;;6.80;;
75820;SDS011;64454;51.984;9.838;2023-06-22T01:56:24;9.63;;;6.90;;
75820;SDS011;64454;51.984;9.838;2023-06-22T01:58:55;9.25;;;7.68;;
75820;SDS011;64454;51.984;9.838;2023-06-22T02:01:31;9.65;;;7.20;;
75820;SDS011;64454;51.984;9.838;2023-06-22T02:04:06;8.52;;;7.60;;
75820;SDS011;64454;51.984;9.838;2023-06-22T02:06:47;10.13;;;7.63;;
75820;SDS011;64454;51.984;9.838;2023-06-22T02:09:22;11.85;;;8.20;;
75820;SDS011;64454;51.984;9.838;2023-06-22T02:11:54;9.60;;;7.63;;
75820;SDS011;64454;51.984;9.838;2023-06-22T02:14:22;9.15;;;7.80;;
75820;SDS011;64454;51.984;9.838;2023-06-22T02:16:52;9.90;;;7.20;;
75820;SDS011;64454;51.984;9.838;2023-06-22T02:19:22;8.23;;;6.82;;
75820;SDS011;64454;51.984;9.838;2023-06-22T02:21:50;9.45;;;6.97;;
75820;SDS011;64454;51.984;9.838;2023-06-22T02:24:18;10.43;;;7.10;;
75820;SDS011;64454;51.984;9.838;2023-06-22T02:26:48;10.30;;;7.30;;
75820;SDS011;64454;51.984;9.838;2023-06-22T02:29:16;8.82;;;7.93;;
75820;SDS011;64454;51.984;9.838;2023-06-22T02:31:45;7.95;;;7.15;;
75820;SDS011;64454;51.984;9.838;2023-06-22T02:34:13;10.37;;;7.40;;
75820;SDS011;64454;51.984;9.838;2023-06-22T02:36:43;9.60;;;7.70;;
75820;SDS011;64454;51.984;9.838;2023-06-22T02:39:16;8.48;;;6.60;;
75820;SDS011;64454;51.984;9.838;2023-06-22T02:41:47;11.02;;;7.35;;
75820;SDS011;64454;51.984;9.838;2023-06-22T02:44:15;8.10;;;6.80;;
75820;SDS011;64454;51.984;9.838;2023-06-22T02:46:45;8.60;;;7.45;;
75820;SDS011;64454;51.984;9.838;2023-06-22T02:49:15;7.20;;;6.50;;
75820;SDS011;64454;51.984;9.838;2023-06-22T02:51:45;8.77;;;6.57;;
75820;SDS011;64454;51.984;9.838;2023-06-22T02:54:14;7.40;;;6.50;;
75820;SDS011;64454;51.984;9.838;2023-06-22T02:56:44;8.47;;;7.27;;
75820;SDS011;64454;51.984;9.838;2023-06-22T02:59:11;9.98;;;7.30;;
75820;SDS011;64454;51.984;9.838;2023-06-22T03:01:38;9.57;;;7.90;;
75820;SDS011;64454;51.984;9.838;2023-06-22T03:04:06;8.88;;;7.97;;
75820;SDS011;64454;51.984;9.838;2023-06-22T03:06:34;10.50;;;7.63;;
75820;SDS011;64454;51.984;9.838;2023-06-22T03:09:02;9.75;;;7.47;;
75820;SDS011;64454;51.984;9.838;2023-06-22T03:11:31;8.85;;;7.85;;
75820;SDS011;64454;51.984;9.838;2023-06-22T03:13:58;10.80;;;7.87;;
75820;SDS011;64454;51.984;9.838;2023-06-22T03:16:27;8.60;;;7.28;;
75820;SDS011;64454;51.984;9.838;2023-06-22T03:18:54;8.70;;;7.60;;
75820;SDS011;64454;51.984;9.838;2023-06-22T03:21:21;9.45;;;7.75;;
75820;SDS011;64454;51.984;9.838;2023-06-22T03:23:50;9.63;;;8.10;;
75820;SDS011;64454;51.984;9.838;2023-06-22T03:26:17;11.07;;;7.50;;
75820;SDS011;64454;51.984;9.838;2023-06-22T03:28:44;9.07;;;8.00;;
75820;SDS011;64454;51.984;9.838;2023-06-22T03:31:11;9.00;;;8.10;;
75820;SDS011;64454;51.984;9.838;2023-06-22T03:33:38;9.40;;;7.40;;
75820;SDS011;64454;51.984;9.838;2023-06-22T03:36:05;10.02;;;8.60;;
75820;SDS011;64454;51.984;9.838;2023-06-22T03:38:32;8.13;;;7.30;;
75820;SDS011;64454;51.984;9.838;2023-06-22T03:41:00;8.55;;;7.40;;
75820;SDS011;64454;51.984;9.838;2023-06-22T03:43:27;8.95;;;7.68;;
75820;SDS011;64454;51.984;9.838;2023-06-22T03:45:53;10.52;;;8.57;;
75820;SDS011;64454;51.984;9.838;2023-06-22T03:48:20;9.55;;;8.18;;
75820;SDS011;64454;51.984;9.838;2023-06-22T03:50:47;9.57;;;8.30;;
75820;SDS011;64454;51.984;9.838;2023-06-22T03:53:14;9.40;;;7.93;;
75820;SDS011;64454;51.984;9.838;2023-06-22T03:55:47;9.23;;;7.47;;
75820;SDS011;64454;51.984;9.838;2023-06-22T03:58:17;10.65;;;7.75;;
75820;SDS011;64454;51.984;9.838;2023-06-22T04:00:45;9.73;;;8.15;;
75820;SDS011;64454;51.984;9.838;2023-06-22T04:03:12;9.48;;;8.10;;
75820;SDS011;64454;51.984;9.838;2023-06-22T04:05:39;9.10;;;7.63;;
75820;SDS011;64454;51.984;9.838;2023-06-22T04:08:06;10.18;;;8.85;;
75820;SDS011;64454;51.984;9.838;2023-06-22T04:10:33;9.27;;;8.38;;
75820;SDS011;64454;51.984;9.838;2023-06-22T04:13:00;11.57;;;9.05;;
75820;SDS011;64454;51.984;9.838;2023-06-22T04:15:28;9.90;;;8.40;;
75820;SDS011;64454;51.984;9.838;2023-06-22T04:17:55;12.55;;;8.57;;
75820;SDS011;64454;51.984;9.838;2023-06-22T04:20:22;10.97;;;8.30;;
75820;SDS011;64454;51.984;9.838;2023-06-22T04:22:51;9.27;;;8.27;;
75820;SDS011;64454;51.984;9.838;2023-06-22T04:25:18;9.67;;;8.00;;
75820;SDS011;64454;51.984;9.838;2023-06-22T04:27:46;9.13;;;8.15;;
75820;SDS011;64454;51.984;9.838;2023-06-22T04:30:13;8.65;;;7.85;;
75820;SDS011;64454;51.984;9.838;2023-06-22T04:32:42;12.38;;;8.70;;
75820;SDS011;64454;51.984;9.838;2023-06-22T04:35:10;11.85;;;10.02;;
75820;SDS011;64454;51.984;9.838;2023-06-22T04:37:37;11.90;;;8.30;;
75820;SDS011;64454;51.984;9.838;2023-06-22T04:40:05;11.10;;;9.02;;
75820;SDS011;64454;51.984;9.838;2023-06-22T04:42:33;11.25;;;8.30;;
75820;SDS011;64454;51.984;9.838;2023-06-22T04:45:01;10.25;;;8.38;;
75820;SDS011;64454;51.984;9.838;2023-06-22T04:47:29;9.38;;;8.05;;
75820;SDS011;64454;51.984;9.838;2023-06-22T04:49:57;9.60;;;8.30;;
75820;SDS011;64454;51.984;9.838;2023-06-22T04:52:24;9.88;;;8.88;;
75820;SDS011;64454;51.984;9.838;2023-06-22T04:54:51;10.25;;;8.57;;
75820;SDS011;64454;51.984;9.838;2023-06-22T04:57:21;10.07;;;8.60;;
75820;SDS011;64454;51.984;9.838;2023-06-22T04:59:57;10.57;;;8.70;;
75820;SDS011;64454;51.984;9.838;2023-06-22T05:02:39;11.30;;;8.90;;
75820;SDS011;64454;51.984;9.838;2023-06-22T05:05:08;11.35;;;9.40;;
75820;SDS011;64454;51.984;9.838;2023-06-22T05:07:38;10.85;;;8.43;;
75820;SDS011;64454;51.984;9.838;2023-06-22T05:10:08;11.10;;;9.07;;
75820;SDS011;64454;51.984;9.838;2023-06-22T05:12:36;16.70;;;9.93;;
75820;SDS011;64454;51.984;9.838;2023-06-22T05:15:03;11.77;;;9.60;;
75820;SDS011;64454;51.984;9.838;2023-06-22T05:17:31;12.00;;;9.48;;
75820;SDS011;64454;51.984;9.838;2023-06-22T05:19:57;10.77;;;8.82;;
75820;SDS011;64454;51.984;9.838;2023-06-22T05:22:26;12.55;;;9.88;;
75820;SDS011;64454;51.984;9.838;2023-06-22T05:24:52;13.70;;;10.63;;
75820;SDS011;64454;51.984;9.838;2023-06-22T05:27:19;10.95;;;9.75;;
75820;SDS011;64454;51.984;9.838;2023-06-22T05:29:46;12.67;;;10.10;;
75820;SDS011;64454;51.984;9.838;2023-06-22T05:32:13;12.13;;;10.30;;
75820;SDS011;64454;51.984;9.838;2023-06-22T05:34:39;12.60;;;10.02;;
75820;SDS011;64454;51.984;9.838;2023-06-22T05:37:06;13.73;;;10.20;;
75820;SDS011;64454;51.984;9.838;2023-06-22T05:39:35;13.80;;;11.07;;
75820;SDS011;64454;51.984;9.838;2023-06-22T05:42:04;13.18;;;9.80;;
75820;SDS011;64454;51.984;9.838;2023-06-22T05:44:31;14.30;;;10.80;;
75820;SDS011;64454;51.984;9.838;2023-06-22T05:46:59;15.38;;;11.50;;
75820;SDS011;64454;51.984;9.838;2023-06-22T05:49:26;17.65;;;9.75;;
75820;SDS011;64454;51.984;9.838;2023-06-22T05:51:54;14.40;;;11.30;;
75820;SDS011;64454;51.984;9.838;2023-06-22T05:54:21;16.77;;;10.27;;
75820;SDS011;64454;51.984;9.838;2023-06-22T05:56:49;13.88;;;11.70;;
75820;SDS011;64454;51.984;9.838;2023-06-22T05:59:17;15.95;;;11.77;;
75820;SDS011;64454;51.984;9.838;2023-06-22T06:01:46;16.65;;;12.00;;
75820;SDS011;64454;51.984;9.838;2023-06-22T06:04:16;19.02;;;11.38;;
75820;SDS011;64454;51.984;9.838;2023-06-22T06:06:45;15.47;;;11.90;;
75820;SDS011;64454;51.984;9.838;2023-06-22T06:09:13;13.20;;;11.15;;
75820;SDS011;64454;51.984;9.838;2023-06-22T06:11:42;14.80;;;10.77;;
75820;SDS011;64454;51.984;9.838;2023-06-22T06:14:10;16.30;;;11.85;;
75820;SDS011;64454;51.984;9.838;2023-06-22T06:16:37;13.07;;;10.80;;
75820;SDS011;64454;51.984;9.838;2023-06-22T06:19:04;12.95;;;11.50;;
75820;SDS011;64454;51.984;9.838;2023-06-22T06:21:31;13.38;;;10.85;;
75820;SDS011;64454;51.984;9.838;2023-06-22T06:23:57;13.20;;;10.98;;
75820;SDS011;64454;51.984;9.838;2023-06-22T06:26:24;14.20;;;11.20;;
75820;SDS011;64454;51.984;9.838;2023-06-22T06:28:55;12.15;;;9.88;;
75820;SDS011;64454;51.984;9.838;2023-06-22T06:31:23;10.27;;;9.18;;
75820;SDS011;64454;51.984;9.838;2023-06-22T06:33:53;11.57;;;9.70;;
75820;SDS011;64454;51.984;9.838;2023-06-22T06:36:20;16.60;;;11.23;;
75820;SDS011;64454;51.984;9.838;2023-06-22T06:38:47;14.57;;;10.80;;
75820;SDS011;64454;51.984;9.838;2023-06-22T06:41:14;12.73;;;11.30;;
75820;SDS011;64454;51.984;9.838;2023-06-22T06:43:42;14.68;;;11.35;;
75820;SDS011;64454;51.984;9.838;2023-06-22T06:46:08;18.40;;;12.25;;
75820;SDS011;64454;51.984;9.838;2023-06-22T06:48:37;13.97;;;10.70;;
75820;SDS011;64454;51.984;9.838;2023-06-22T06:51:04;14.00;;;12.00;;
75820;SDS011;64454;51.984;9.838;2023-06-22T06:53:34;15.55;;;11.98;;
75820;SDS011;64454;51.984;9.838;2023-06-22T06:56:02;15.07;;;11.85;;
75820;SDS011;64454;51.984;9.838;2023-06-22T06:58:30;16.55;;;11.88;;
75820;SDS011;64454;51.984;9.838;2023-06-22T07:00:57;13.32;;;9.80;;
75820;SDS011;64454;51.984;9.838;2023-06-22T07:03:24;15.35;;;11.07;;
75820;SDS011;64454;51.984;9.838;2023-06-22T07:05:52;17.50;;;11.70;;
75820;SDS011;64454;51.984;9.838;2023-06-22T07:08:19;16.33;;;12.00;;
75820;SDS011;64454;51.984;9.838;2023-06-22T07:10:46;16.30;;;11.47;;
75820;SDS011;64454;51.984;9.838;2023-06-22T07:13:12;15.60;;;13.07;;
75820;SDS011;64454;51.984;9.838;2023-06-22T07:15:39;15.25;;;13.63;;
75820;SDS011;64454;51.984;9.838;2023-06-22T07:18:07;14.70;;;12.40;;
75820;SDS011;64454;51.984;9.838;2023-06-22T07:20:33;18.10;;;12.38;;
75820;SDS011;64454;51.984;9.838;2023-06-22T07:23:01;14.88;;;12.00;;
75820;SDS011;64454;51.984;9.838;2023-06-22T07:25:28;14.60;;;12.15;;
75820;SDS011;64454;51.984;9.838;2023-06-22T07:27:59;19.17;;;12.93;;
75820;SDS011;64454;51.984;9.838;2023-06-22T07:30:29;15.32;;;12.65;;
75820;SDS011;64454;51.984;9.838;2023-06-22T07:32:57;16.70;;;12.52;;
75820;SDS011;64454;51.984;9.838;2023-06-22T07:35:28;18.35;;;12.52;;
75820;SDS011;64454;51.984;9.838;2023-06-22T07:37:55;15.97;;;12.20;;
75820;SDS011;64454;51.984;9.838;2023-06-22T07:40:23;14.25;;;11.90;;
75820;SDS011;64454;51.984;9.838;2023-06-22T07:42:50;14.52;;;12.00;;
75820;SDS011;64454;51.984;9.838;2023-06-22T07:45:18;15.20;;;12.87;;
75820;SDS011;64454;51.984;9.838;2023-06-22T07:47:45;13.68;;;11.20;;
75820;SDS011;64454;51.984;9.838;2023-06-22T07:50:12;12.98;;;10.80;;
75820;SDS011;64454;51.984;9.838;2023-06-22T07:52:39;15.90;;;12.60;;
75820;SDS011;64454;51.984;9.838;2023-06-22T07:55:06;15.15;;;12.07;;
75820;SDS011;64454;51.984;9.838;2023-06-22T07:57:35;15.25;;;11.85;;
75820;SDS011;64454;51.984;9.838;2023-06-22T08:00:03;14.23;;;12.40;;
75820;SDS011;64454;51.984;9.838;2023-06-22T08:02:37;14.60;;;11.50;;
75820;SDS011;64454;51.984;9.838;2023-06-22T08:05:04;13.55;;;12.00;;
75820;SDS011;64454;51.984;9.838;2023-06-22T08:07:33;13.77;;;12.05;;
75820;SDS011;64454;51.984;9.838;2023-06-22T08:10:00;13.77;;;11.68;;
75820;SDS011;64454;51.984;9.838;2023-06-22T08:12:27;15.02;;;11.55;;
75820;SDS011;64454;51.984;9.838;2023-06-22T08:14:55;15.40;;;12.00;;
75820;SDS011;64454;51.984;9.838;2023-06-22T08:17:22;13.35;;;11.40;;
75820;SDS011;64454;51.984;9.838;2023-06-22T08:19:49;14.93;;;12.73;;
75820;SDS011;64454;51.984;9.838;2023-06-22T08:22:16;15.25;;;11.82;;
75820;SDS011;64454;51.984;9.838;2023-06-22T08:24:43;12.05;;;10.80;;
75820;SDS011;64454;51.984;9.838;2023-06-22T08:27:10;13.93;;;11.48;;
75820;SDS011;64454;51.984;9.838;2023-06-22T08:29:38;13.27;;;11.45;;
75820;SDS011;64454;51.984;9.838;2023-06-22T08:32:08;12.95;;;11.25;;
75820;SDS011;64454;51.984;9.838;2023-06-22T08:34:35;14.85;;;12.05;;
75820;SDS011;64454;51.984;9.838;2023-06-22T08:37:02;16.05;;;12.18;;
75820;SDS011;64454;51.984;9.838;2023-06-22T08:39:31;15.30;;;11.50;;
75820;SDS011;64454;51.984;9.838;2023-06-22T08:41:58;14.07;;;12.57;;
75820;SDS011;64454;51.984;9.838;2023-06-22T08:44:25;15.68;;;12.27;;
75820;SDS011;64454;51.984;9.838;2023-06-22T08:46:52;14.30;;;11.73;;
75820;SDS011;64454;51.984;9.838;2023-06-22T08:49:20;15.00;;;12.45;;
75820;SDS011;64454;51.984;9.838;2023-06-22T08:51:47;14.75;;;12.45;;
75820;SDS011;64454;51.984;9.838;2023-06-22T08:54:18;14.07;;;11.88;;
75820;SDS011;64454;51.984;9.838;2023-06-22T08:56:46;14.82;;;12.00;;
75820;SDS011;64454;51.984;9.838;2023-06-22T08:59:13;14.45;;;12.05;;
75820;SDS011;64454;51.984;9.838;2023-06-22T09:01:42;15.82;;;12.30;;
75820;SDS011;64454;51.984;9.838;2023-06-22T09:04:10;15.30;;;11.90;;
75820;SDS011;64454;51.984;9.838;2023-06-22T09:06:38;15.45;;;12.25;;
75820;SDS011;64454;51.984;9.838;2023-06-22T09:09:09;13.57;;;11.03;;
75820;SDS011;64454;51.984;9.838;2023-06-22T09:11:37;15.00;;;12.17;;
75820;SDS011;64454;51.984;9.838;2023-06-22T09:14:04;13.90;;;11.93;;
75820;SDS011;64454;51.984;9.838;2023-06-22T09:16:31;15.65;;;11.88;;
75820;SDS011;64454;51.984;9.838;2023-06-22T09:18:58;12.00;;;10.67;;
75820;SDS011;64454;51.984;9.838;2023-06-22T09:21:25;12.82;;;11.43;;
75820;SDS011;64454;51.984;9.838;2023-06-22T09:23:53;13.13;;;11.35;;
75820;SDS011;64454;51.984;9.838;2023-06-22T09:26:20;12.90;;;11.50;;
75820;SDS011;64454;51.984;9.838;2023-06-22T09:28:47;13.83;;;11.63;;
75820;SDS011;64454;51.984;9.838;2023-06-22T09:31:14;12.93;;;11.50;;
75820;SDS011;64454;51.984;9.838;2023-06-22T09:33:41;13.20;;;10.80;;
75820;SDS011;64454;51.984;9.838;2023-06-22T09:36:09;12.05;;;10.80;;
75820;SDS011;64454;51.984;9.838;2023-06-22T09:38:36;13.43;;;11.20;;
75820;SDS011;64454;51.984;9.838;2023-06-22T09:41:04;14.43;;;11.88;;
75820;SDS011;64454;51.984;9.838;2023-06-22T09:43:32;14.00;;;11.88;;
75820;SDS011;64454;51.984;9.838;2023-06-22T09:46:00;12.35;;;10.43;;
75820;SDS011;64454;51.984;9.838;2023-06-22T09:48:28;16.65;;;10.98;;
75820;SDS011;64454;51.984;9.838;2023-06-22T09:50:55;12.48;;;11.07;;
75820;SDS011;64454;51.984;9.838;2023-06-22T09:53:22;12.95;;;10.80;;
75820;SDS011;64454;51.984;9.838;2023-06-22T09:55:49;12.57;;;10.47;;
75820;SDS011;64454;51.984;9.838;2023-06-22T09:58:17;13.68;;;11.75;;
75820;SDS011;64454;51.984;9.838;2023-06-22T10:00:44;16.35;;;11.70;;
75820;SDS011;64454;51.984;9.838;2023-06-22T10:03:11;13.73;;;10.93;;
75820;SDS011;64454;51.984;9.838;2023-06-22T10:05:37;12.20;;;10.52;;
75820;SDS011;64454;51.984;9.838;2023-06-22T10:08:04;12.70;;;10.75;;
75820;SDS011;64454;51.984;9.838;2023-06-22T10:10:32;12.50;;;11.20;;
75820;SDS011;64454;51.984;9.838;2023-06-22T10:13:02;12.95;;;11.00;;
75820;SDS011;64454;51.984;9.838;2023-06-22T10:15:36;13.40;;;10.55;;
75820;SDS011;64454;51.984;9.838;2023-06-22T10:18:03;14.53;;;11.07;;
75820;SDS011;64454;51.984;9.838;2023-06-22T10:20:30;11.32;;;9.85;;
75820;SDS011;64454;51.984;9.838;2023-06-22T10:22:57;11.18;;;10.07;;
75820;SDS011;64454;51.984;9.838;2023-06-22T10:25:24;11.45;;;10.10;;
75820;SDS011;64454;51.984;9.838;2023-06-22T10:27:51;12.15;;;10.30;;
75820;SDS011;64454;51.984;9.838;2023-06-22T10:30:18;12.95;;;11.10;;
75820;SDS011;64454;51.984;9.838;2023-06-22T10:32:46;13.02;;;11.02;;
75820;SDS011;64454;51.984;9.838;2023-06-22T10:35:12;13.32;;;10.27;;
75820;SDS011;64454;51.984;9.838;2023-06-22T10:37:41;11.25;;;10.05;;
75820;SDS011;64454;51.984;9.838;2023-06-22T10:40:09;12.10;;;10.23;;
75820;SDS011;64454;51.984;9.838;2023-06-22T10:42:38;12.20;;;10.90;;
75820;SDS011;64454;51.984;9.838;2023-06-22T10:45:06;14.80;;;10.38;;
75820;SDS011;64454;51.984;9.838;2023-06-22T10:47:34;15.53;;;10.97;;
75820;SDS011;64454;51.984;9.838;2023-06-22T10:50:02;13.48;;;10.40;;
75820;SDS011;64454;51.984;9.838;2023-06-22T10:52:31;13.13;;;10.20;;
75820;SDS011;64454;51.984;9.838;2023-06-22T10:54:58;11.05;;;9.93;;
75820;SDS011;64454;51.984;9.838;2023-06-22T10:57:24;10.70;;;9.60;;
75820;SDS011;64454;51.984;9.838;2023-06-22T10:59:53;12.25;;;9.60;;
75820;SDS011;64454;51.984;9.838;2023-06-22T11:02:20;9.63;;;8.60;;
75820;SDS011;64454;51.984;9.838;2023-06-22T11:04:46;10.00;;;8.70;;
75820;SDS011;64454;51.984;9.838;2023-06-22T11:07:14;9.95;;;8.95;;
75820;SDS011;64454;51.984;9.838;2023-06-22T11:09:42;10.07;;;9.05;;
75820;SDS011;64454;51.984;9.838;2023-06-22T11:12:09;8.55;;;7.40;;
75820;SDS011;64454;51.984;9.838;2023-06-22T11:14:36;8.27;;;7.47;;
75820;SDS011;64454;51.984;9.838;2023-06-22T11:17:03;8.32;;;7.53;;
75820;SDS011;64454;51.984;9.838;2023-06-22T11:19:30;10.13;;;8.10;;
75820;SDS011;64454;51.984;9.838;2023-06-22T11:21:57;8.85;;;8.02;;
75820;SDS011;64454;51.984;9.838;2023-06-22T11:24:25;8.55;;;7.75;;
75820;SDS011;64454;51.984;9.838;2023-06-22T11:26:52;8.15;;;7.35;;
75820;SDS011;64454;51.984;9.838;2023-06-22T11:29:20;8.18;;;7.38;;
75820;SDS011;64454;51.984;9.838;2023-06-22T11:31:46;8.30;;;7.50;;
75820;SDS011;64454;51.984;9.838;2023-06-22T11:34:14;8.85;;;7.95;;
75820;SDS011;64454;51.984;9.838;2023-06-22T11:36:44;9.00;;;8.10;;
75820;SDS011;64454;51.984;9.838;2023-06-22T11:39:12;9.00;;;7.95;;
75820;SDS011;64454;51.984;9.838;2023-06-22T11:41:42;10.48;;;8.80;;
75820;SDS011;64454;51.984;9.838;2023-06-22T11:44:09;9.37;;;8.47;;
75820;SDS011;64454;51.984;9.838;2023-06-22T11:46:35;8.70;;;7.80;;
75820;SDS011;64454;51.984;9.838;2023-06-22T11:49:03;9.05;;;8.20;;
75820;SDS011;64454;51.984;9.838;2023-06-22T11:51:30;9.15;;;8.25;;
75820;SDS011;64454;51.984;9.838;2023-06-22T11:53:57;9.43;;;8.52;;
75820;SDS011;64454;51.984;9.838;2023-06-22T11:56:24;8.95;;;8.15;;
75820;SDS011;64454;51.984;9.838;2023-06-22T11:58:53;9.80;;;8.48;;
75820;SDS011;64454;51.984;9.838;2023-06-22T12:01:20;8.35;;;7.55;;
75820;SDS011;64454;51.984;9.838;2023-06-22T12:03:47;8.60;;;7.80;;
75820;SDS011;64454;51.984;9.838;2023-06-22T12:06:14;9.05;;;8.15;;
75820;SDS011;64454;51.984;9.838;2023-06-22T12:08:41;9.60;;;8.48;;
75820;SDS011;64454;51.984;9.838;2023-06-22T12:11:07;9.15;;;8.25;;
75820;SDS011;64454;51.984;9.838;2023-06-22T12:13:34;8.90;;;7.93;;
75820;SDS011;64454;51.984;9.838;2023-06-22T12:16:02;9.87;;;8.20;;
75820;SDS011;64454;51.984;9.838;2023-06-22T12:18:30;9.55;;;8.65;;
75820;SDS011;64454;51.984;9.838;2023-06-22T12:20:57;10.50;;;9.40;;
75820;SDS011;64454;51.984;9.838;2023-06-22T12:23:23;9.75;;;8.77;;
75820;SDS011;64454;51.984;9.838;2023-06-22T12:25:50;10.68;;;9.68;;
75820;SDS011;64454;51.984;9.838;2023-06-22T12:28:17;10.48;;;9.48;;
75820;SDS011;64454;51.984;9.838;2023-06-22T12:30:44;10.75;;;9.68;;
75820;SDS011;64454;51.984;9.838;2023-06-22T12:33:12;10.77;;;9.77;;
75820;SDS011;64454;51.984;9.838;2023-06-22T12:35:39;11.30;;;9.48;;
75820;SDS011;64454;51.984;9.838;2023-06-22T12:38:06;11.73;;;10.20;;
75820;SDS011;64454;51.984;9.838;2023-06-22T12:40:33;11.18;;;10.07;;
75820;SDS011;64454;51.984;9.838;2023-06-22T12:43:00;11.75;;;10.55;;
75820;SDS011;64454;51.984;9.838;2023-06-22T12:45:27;12.05;;;10.85;;
75820;SDS011;64454;51.984;9.838;2023-06-22T12:47:56;11.55;;;10.35;;
75820;SDS011;64454;51.984;9.838;2023-06-22T12:50:25;11.10;;;9.90;;
75820;SDS011;64454;51.984;9.838;2023-06-22T12:52:52;11.32;;;10.20;;
75820;SDS011;64454;51.984;9.838;2023-06-22T12:55:19;10.65;;;9.65;;
75820;SDS011;64454;51.984;9.838;2023-06-22T12:57:46;10.45;;;9.45;;
75820;SDS011;64454;51.984;9.838;2023-06-22T13:00:13;10.65;;;9.55;;
75820;SDS011;64454;51.984;9.838;2023-06-22T13:02:41;10.88;;;9.88;;
75820;SDS011;64454;51.984;9.838;2023-06-22T13:05:08;10.40;;;9.40;;
75820;SDS011;64454;51.984;9.838;2023-06-22T13:07:36;11.25;;;10.05;;
75820;SDS011;64454;51.984;9.838;2023-06-22T13:10:03;10.32;;;9.32;;
75820;SDS011;64454;51.984;9.838;2023-06-22T13:12:31;8.95;;;8.05;;
75820;SDS011;64454;51.984;9.838;2023-06-22T13:14:58;11.90;;;9.52;;
75820;SDS011;64454;51.984;9.838;2023-06-22T13:17:25;10.63;;;9.23;;
75820;SDS011;64454;51.984;9.838;2023-06-22T13:19:52;10.40;;;9.40;;
75820;SDS011;64454;51.984;9.838;2023-06-22T13:22:28;10.38;;;9.27;;
75820;SDS011;64454;51.984;9.838;2023-06-22T13:24:58;10.05;;;9.05;;
75820;SDS011;64454;51.984;9.838;2023-06-22T13:27:27;10.27;;;9.18;;
75820;SDS011;64454;51.984;9.838;2023-06-22T13:29:53;12.03;;;10.17;;
75820;SDS011;64454;51.984;9.838;2023-06-22T13:32:20;13.80;;;10.20;;
75820;SDS011;64454;51.984;9.838;2023-06-22T13:34:47;11.40;;;10.10;;
75820;SDS011;64454;51.984;9.838;2023-06-22T13:37:14;12.02;;;10.82;;
75820;SDS011;64454;51.984;9.838;2023-06-22T13:39:41;11.15;;;9.90;;
75820;SDS011;64454;51.984;9.838;2023-06-22T13:42:09;12.85;;;10.68;;
75820;SDS011;64454;51.984;9.838;2023-06-22T13:44:36;11.50;;;10.40;;
75820;SDS011;64454;51.984;9.838;2023-06-22T13:47:03;11.27;;;10.18;;
75820;SDS011;64454;51.984;9.838;2023-06-22T13:49:30;10.68;;;9.68;;
75820;SDS011;64454;51.984;9.838;2023-06-22T13:51:58;12.63;;;10.35;;
75820;SDS011;64454;51.984;9.838;2023-06-22T13:54:25;11.20;;;10.02;;
75820;SDS011;64454;51.984;9.838;2023-06-22T13:56:52;12.13;;;10.93;;
75820;SDS011;64454;51.984;9.838;2023-06-22T13:59:21;12.17;;;10.97;;
75820;SDS011;64454;51.984;9.838;2023-06-22T14:01:48;11.45;;;10.35;;
75820;SDS011;64454;51.984;9.838;2023-06-22T14:04:16;12.40;;;11.20;;
75820;SDS011;64454;51.984;9.838;2023-06-22T14:06:45;12.30;;;11.10;;
75820;SDS011;64454;51.984;9.838;2023-06-22T14:09:12;12.00;;;10.80;;
75820;SDS011;64454;51.984;9.838;2023-06-22T14:11:39;11.80;;;10.50;;
75820;SDS011;64454;51.984;9.838;2023-06-22T14:14:06;11.70;;;10.60;;
75820;SDS011;64454;51.984;9.838;2023-06-22T14:16:34;11.70;;;10.57;;
75820;SDS011;64454;51.984;9.838;2023-06-22T14:19:01;12.27;;;10.98;;
75820;SDS011;64454;51.984;9.838;2023-06-22T14:21:28;12.05;;;10.95;;
75820;SDS011;64454;51.984;9.838;2023-06-22T14:23:55;13.33;;;11.93;;
75820;SDS011;64454;51.984;9.838;2023-06-22T14:26:22;11.90;;;10.80;;
75820;SDS011;64454;51.984;9.838;2023-06-22T14:28:49;12.50;;;11.30;;
75820;SDS011;64454;51.984;9.838;2023-06-22T14:31:16;12.10;;;11.00;;
75820;SDS011;64454;51.984;9.838;2023-06-22T14:33:46;12.10;;;10.90;;
75820;SDS011;64454;51.984;9.838;2023-06-22T14:36:14;12.93;;;11.63;;
75820;SDS011;64454;51.984;9.838;2023-06-22T14:38:42;12.32;;;11.10;;